Guymon Municipal Airport
KGUY : now visible

Airfield :











YOU CAN JOIN US ON...

 
LOGIN :

Register | Disclaimer

   EN    FR    IT 

 









Legend :    VFR   Marginal VFR   IFR   Intensive IFR   Very Intensive IFR
Visi :
Ceiling :
>= 8 km
>= 3000ft
5 to 8 km
1000 to 3000 ft
1500m to 5 km
500 to 1000 ft
800 to 1500m
200 to 500 ft
< 800m
< 200 ft
Symbols :   Thunderstorms  Fog  Heavy snow  Heavy precipitations  Wind > 20 kt






- Airport Elevation : 3123 ft


KGUY - Guymon Municipal

CURRENT METAR :
  • 100353Z AUTO 07013KT 10SM CLR 12/04 A3011 RMK AO2 SLP176 T01170044

EXPIRED METARs :
  • 100253Z AUTO 07011KT 10SM CLR 13/04 A3008 RMK AO2 SLP167 T01280039 53029
  • 100153Z AUTO 05011KT 10SM CLR 14/03 A3004 RMK AO2 SLP152 T01440033

TAF KGUY
Valid from the 10 at 03:00 until the 11 at 00:00 UTC


100314Z 1003/1024 08011KT P6SM VCSH BKN050
FM100900 09009KT P6SM VCSH OVC015
FM101300 10011KT P6SM OVC008
FM101700 12011KT P6SM OVC015
FM102100 11011KT P6SM OVC025
KZKC FIR / North America



MET'MAP, your aeronautical weather chart ! - Copyright ORBIFLY December 2007 - Disclaimer

ORBIFLY MET'MAP TEAM :

Programming & Development : Alexandra Zaïnal
Concept & original design : Baudouin d'Aumeries
Assistance for programming : Marc-Olivier Méhu
Technical & hardware support : Manuel Goepfert

Contact : metmap@orbifly.com




SOURCES & CREDITS :

   NOAA       Earth
Advisory